createdAt,value
2018-02-14T00:01:49.880Z,0.70
2018-02-14T00:06:11.327Z,0.70
2018-02-14T00:08:38.815Z,0.70
2018-02-14T00:11:06.270Z,0.60
2018-02-14T00:13:33.748Z,0.70
2018-02-14T00:16:01.204Z,0.60
2018-02-14T00:18:28.663Z,0.60
2018-02-14T00:20:56.356Z,0.50
2018-02-14T00:23:23.827Z,0.50
2018-02-14T00:25:51.359Z,0.50
2018-02-14T00:28:18.811Z,0.50
2018-02-14T00:30:47.255Z,0.40
2018-02-14T00:33:14.707Z,0.40
2018-02-14T00:35:42.174Z,0.40
2018-02-14T00:38:09.768Z,0.40
2018-02-14T00:40:37.225Z,0.30
2018-02-14T00:43:04.687Z,0.30
2018-02-14T00:45:32.166Z,0.30
2018-02-14T00:47:59.649Z,0.30
2018-02-14T00:50:27.168Z,0.30
2018-02-14T00:52:55.402Z,0.30
2018-02-14T00:55:22.880Z,0.20
2018-02-14T00:57:50.348Z,0.30
2018-02-14T01:00:17.808Z,0.20
2018-02-14T01:02:45.283Z,0.20
2018-02-14T01:05:12.755Z,0.20
2018-02-14T01:07:40.224Z,0.20
2018-02-14T01:10:07.684Z,0.20
2018-02-14T01:12:35.364Z,0.20
2018-02-14T01:15:02.824Z,0.20
2018-02-14T01:17:30.308Z,0.10
2018-02-14T01:20:03.476Z,0.10
2018-02-14T01:22:30.931Z,0.10
2018-02-14T01:24:58.385Z,0.10
2018-02-14T01:27:26.611Z,0.00
2018-02-14T01:29:54.067Z,0.00
2018-02-14T01:32:21.580Z,0.00
2018-02-14T01:34:49.043Z,0.00
2018-02-14T01:37:16.508Z,-0.10
2018-02-14T01:39:43.995Z,-0.10
2018-02-14T01:42:11.451Z,-0.10
2018-02-14T01:44:38.916Z,-0.10
2018-02-14T01:47:06.497Z,-0.10
2018-02-14T01:49:34.010Z,-0.10
2018-02-14T01:52:02.248Z,-0.20
2018-02-14T01:54:29.722Z,-0.20
2018-02-14T01:56:57.179Z,-0.20
2018-02-14T01:59:24.864Z,-0.20
2018-02-14T02:01:52.332Z,-0.20
2018-02-14T02:04:19.803Z,-0.20
2018-02-14T02:06:47.368Z,-0.20
2018-02-14T02:09:14.939Z,-0.30
2018-02-14T02:11:42.419Z,-0.30
2018-02-14T02:14:09.930Z,-0.30
2018-02-14T02:16:38.151Z,-0.40
2018-02-14T02:19:05.639Z,-0.40
2018-02-14T02:21:33.208Z,-0.40
2018-02-14T02:24:00.683Z,-0.40
2018-02-14T02:26:28.239Z,-0.40
2018-02-14T02:28:55.709Z,-0.40
2018-02-14T02:31:23.201Z,-0.40
2018-02-14T02:33:50.663Z,-0.50
2018-02-14T02:36:18.179Z,-0.50
2018-02-14T02:38:46.423Z,-0.50
2018-02-14T02:41:13.888Z,-0.60
2018-02-14T02:43:41.370Z,-0.60
2018-02-14T02:46:08.928Z,-0.60
2018-02-14T02:48:36.399Z,-0.60
2018-02-14T02:51:03.880Z,-0.60
2018-02-14T02:53:31.355Z,-0.60
2018-02-14T02:55:58.908Z,-0.60
2018-02-14T02:58:26.384Z,-0.60
2018-02-14T03:00:53.844Z,-0.60
2018-02-14T03:03:21.424Z,-0.60
2018-02-14T03:05:49.087Z,-0.60
2018-02-14T03:08:16.572Z,-0.60
2018-02-14T03:10:44.031Z,-0.60
2018-02-14T03:13:11.601Z,-0.60
2018-02-14T03:15:39.179Z,-0.70
2018-02-14T03:18:06.641Z,-0.70
2018-02-14T03:20:34.112Z,-0.70
2018-02-14T03:23:01.684Z,-0.60
2018-02-14T03:25:29.205Z,-0.60
2018-02-14T03:27:57.436Z,-0.70
2018-02-14T03:30:24.908Z,-0.80
2018-02-14T03:32:52.483Z,-0.80
2018-02-14T03:35:19.963Z,-0.80
2018-02-14T03:37:47.434Z,-0.80
2018-02-14T03:40:14.900Z,-0.70
2018-02-14T03:42:42.390Z,-0.70
2018-02-14T03:45:10.652Z,-0.70
2018-02-14T03:47:38.123Z,-0.70
2018-02-14T03:50:05.686Z,-0.70
2018-02-14T03:52:33.164Z,-0.70
2018-02-14T03:55:00.656Z,-0.70
2018-02-14T03:57:28.115Z,-0.70
2018-02-14T03:59:55.580Z,-0.80
2018-02-14T04:02:23.055Z,-0.70
2018-02-14T04:04:50.532Z,-0.80
2018-02-14T04:07:18.075Z,-0.80
2018-02-14T04:09:45.535Z,-0.80
2018-02-14T04:12:12.996Z,-0.90
2018-02-14T04:14:40.467Z,-0.90
2018-02-14T04:17:07.960Z,-0.90
2018-02-14T04:19:35.428Z,-0.90
2018-02-14T04:22:03.007Z,-0.90
2018-02-14T04:24:30.472Z,-1.00
2018-02-14T04:26:57.936Z,-1.00
2018-02-14T04:29:25.399Z,-1.00
2018-02-14T04:31:52.892Z,-1.00
2018-02-14T04:34:20.363Z,-1.00
2018-02-14T04:36:47.918Z,-1.10
2018-02-14T04:39:15.383Z,-1.10
2018-02-14T04:41:42.856Z,-1.10
2018-02-14T04:44:10.322Z,-1.10
2018-02-14T04:46:37.903Z,-1.20
2018-02-14T04:49:05.468Z,-1.20
2018-02-14T04:51:32.931Z,-1.20
2018-02-14T04:54:00.443Z,-1.20
2018-02-14T04:56:28.688Z,-1.30
2018-02-14T04:58:56.148Z,-1.30
2018-02-14T05:01:23.739Z,-1.30
2018-02-14T05:03:51.243Z,-1.30
2018-02-14T05:06:19.512Z,-1.30
2018-02-14T05:08:47.067Z,-1.30
2018-02-14T05:11:14.523Z,-1.30
2018-02-14T05:13:41.995Z,-1.30
2018-02-14T05:16:09.478Z,-1.30
2018-02-14T05:18:37.043Z,-1.30
2018-02-14T05:21:04.512Z,-1.30
2018-02-14T05:23:31.983Z,-1.40
2018-02-14T05:25:59.555Z,-1.40
2018-02-14T05:28:27.023Z,-1.40
2018-02-14T05:30:54.620Z,-1.40
2018-02-14T05:33:22.118Z,-1.40
2018-02-14T05:35:49.580Z,-1.40
2018-02-14T05:38:17.819Z,-1.40
2018-02-14T05:40:45.307Z,-1.40
2018-02-14T05:43:12.865Z,-1.40
2018-02-14T05:45:40.339Z,-1.40
2018-02-14T05:48:07.916Z,-1.40
2018-02-14T05:50:35.391Z,-1.40
2018-02-14T05:53:02.948Z,-1.40
2018-02-14T05:55:30.428Z,-1.40
2018-02-14T05:57:57.888Z,-1.40
2018-02-14T06:00:25.513Z,-1.40
2018-02-14T06:02:52.940Z,-1.40
2018-02-14T06:05:20.407Z,-1.40
2018-02-14T06:07:47.869Z,-1.40
2018-02-14T06:10:15.386Z,-1.50
2018-02-14T06:12:43.623Z,-1.50
2018-02-14T06:15:11.100Z,-1.50
2018-02-14T06:17:38.675Z,-1.50
2018-02-14T06:20:06.139Z,-1.60
2018-02-14T06:22:33.633Z,-1.60
2018-02-14T06:25:01.103Z,-1.60
2018-02-14T06:27:28.651Z,-1.60
2018-02-14T06:29:56.231Z,-1.60
2018-02-14T06:32:23.787Z,-1.60
2018-02-14T06:34:51.261Z,-1.60
2018-02-14T06:37:18.844Z,-1.60
2018-02-14T06:39:46.398Z,-1.60
2018-02-14T06:42:13.979Z,-1.60
2018-02-14T06:44:41.457Z,-1.60
2018-02-14T06:47:08.943Z,-1.60
2018-02-14T06:49:37.211Z,-1.60
2018-02-14T06:52:04.780Z,-1.70
2018-02-14T06:54:32.259Z,-1.60
2018-02-14T06:56:59.719Z,-1.60
2018-02-14T06:59:27.199Z,-1.60
2018-02-14T07:01:55.430Z,-1.60
2018-02-14T07:04:22.900Z,-1.60
2018-02-14T07:06:50.372Z,-1.60
2018-02-14T07:09:17.851Z,-1.60
2018-02-14T07:11:45.356Z,-1.60
2018-02-14T07:14:12.830Z,-1.50
2018-02-14T07:16:40.396Z,-1.50
2018-02-14T07:19:07.967Z,-1.40
2018-02-14T07:21:35.532Z,-1.40
2018-02-14T07:24:03.023Z,-1.30
2018-02-14T07:26:30.479Z,-1.30
2018-02-14T07:28:58.056Z,-1.30
2018-02-14T07:31:25.534Z,-1.30
2018-02-14T07:33:53.007Z,-1.20
2018-02-14T07:36:20.480Z,-1.20
2018-02-14T07:38:47.956Z,-1.10
2018-02-14T07:41:16.312Z,-1.00
2018-02-14T07:43:43.779Z,-1.00
2018-02-14T07:46:11.358Z,-1.00
2018-02-14T07:48:38.826Z,-0.90
2018-02-14T07:51:06.279Z,-0.90
2018-02-14T07:53:33.743Z,-0.80
2018-02-14T07:56:01.286Z,-0.80
2018-02-14T07:58:29.523Z,-0.70
2018-02-14T08:00:56.988Z,-0.70
2018-02-14T08:03:24.567Z,-0.60
2018-02-14T08:05:52.065Z,-0.60
2018-02-14T08:08:20.313Z,-0.50
2018-02-14T08:10:47.808Z,-0.60
2018-02-14T08:13:15.260Z,-0.50
2018-02-14T08:15:42.731Z,-0.40
2018-02-14T08:18:10.199Z,-0.40
2018-02-14T08:20:37.779Z,-0.40
2018-02-14T08:23:05.243Z,-0.30
2018-02-14T08:25:32.703Z,-0.30
2018-02-14T08:28:00.303Z,-0.20
2018-02-14T08:30:27.867Z,-0.10
2018-02-14T08:32:56.151Z,0.10
2018-02-14T08:35:23.624Z,0.00
2018-02-14T08:37:51.092Z,0.00
2018-02-14T08:40:18.705Z,0.10
2018-02-14T08:42:46.923Z,0.20
2018-02-14T08:45:14.412Z,0.20
2018-02-14T08:47:41.987Z,0.30
2018-02-14T08:50:09.443Z,0.40
2018-02-14T08:52:36.927Z,0.50
2018-02-14T08:55:04.400Z,0.50
2018-02-14T08:57:31.964Z,0.60
2018-02-14T08:59:59.513Z,0.70
2018-02-14T09:02:26.975Z,0.70
2018-02-14T09:04:54.471Z,0.80
2018-02-14T09:07:21.947Z,0.90
2018-02-14T09:09:49.403Z,1.00
2018-02-14T09:12:16.878Z,1.10
2018-02-14T09:14:44.363Z,1.20
2018-02-14T09:17:11.839Z,1.30
2018-02-14T09:19:39.303Z,1.40
2018-02-14T09:22:06.867Z,1.40
2018-02-14T09:24:34.343Z,1.50
2018-02-14T09:27:01.806Z,1.60
2018-02-14T09:29:29.371Z,1.60
2018-02-14T09:31:56.835Z,1.60
2018-02-14T09:34:24.319Z,1.70
2018-02-14T09:36:51.918Z,1.80
2018-02-14T09:39:20.136Z,2.00
2018-02-14T09:41:47.615Z,1.90
2018-02-14T09:44:15.107Z,2.10
2018-02-14T09:46:42.697Z,2.10
2018-02-14T09:49:10.146Z,2.20
2018-02-14T09:51:37.602Z,2.20
2018-02-14T09:54:05.079Z,2.30
2018-02-14T09:56:32.548Z,2.40
2018-02-14T09:59:00.039Z,2.50
2018-02-14T10:01:27.511Z,2.60
2018-02-14T10:03:55.023Z,2.70
2018-02-14T10:06:23.257Z,2.90
2018-02-14T10:08:50.720Z,2.90
2018-02-14T10:11:18.195Z,3.00
2018-02-14T10:13:45.683Z,3.00
2018-02-14T10:16:13.143Z,3.10
2018-02-14T10:18:40.608Z,3.20
2018-02-14T10:21:08.072Z,3.20
2018-02-14T10:23:35.527Z,3.30
2018-02-14T10:26:03.010Z,3.30
2018-02-14T10:28:30.476Z,3.40
2018-02-14T10:30:57.968Z,3.50
2018-02-14T10:33:25.448Z,3.50
2018-02-14T10:35:52.999Z,3.60
2018-02-14T10:38:20.491Z,3.70
2018-02-14T10:40:47.940Z,3.80
2018-02-14T10:43:15.404Z,3.80
2018-02-14T10:45:42.867Z,3.80
2018-02-14T10:48:10.339Z,3.90
2018-02-14T10:50:37.807Z,3.90
2018-02-14T10:53:05.284Z,4.00
2018-02-14T10:55:32.747Z,4.10
2018-02-14T10:58:00.212Z,4.20
2018-02-14T11:00:33.395Z,4.20
2018-02-14T11:03:06.438Z,4.40
2018-02-14T11:05:33.999Z,4.50
2018-02-14T11:08:01.587Z,4.60
2018-02-14T11:10:29.039Z,4.70
2018-02-14T11:12:56.607Z,4.80
2018-02-14T11:15:24.090Z,4.80
2018-02-14T11:17:51.540Z,4.90
2018-02-14T11:20:19.115Z,5.00
2018-02-14T11:22:46.584Z,5.10
2018-02-14T11:25:14.057Z,5.20
2018-02-14T11:27:41.532Z,5.30
2018-02-14T11:30:09.827Z,6.10
2018-02-14T11:32:37.283Z,6.10
2018-02-14T11:35:04.751Z,6.80
2018-02-14T11:37:32.224Z,7.90
2018-02-14T11:39:59.684Z,8.70
2018-02-14T11:42:27.144Z,9.70
2018-02-14T11:44:54.611Z,10.40
2018-02-14T11:47:22.112Z,11.00
2018-02-14T11:49:49.580Z,11.80
2018-02-14T11:52:17.140Z,12.00
2018-02-14T11:54:44.603Z,12.20
2018-02-14T11:57:12.075Z,12.60
2018-02-14T11:59:39.558Z,13.20
2018-02-14T12:02:07.019Z,13.40
2018-02-14T12:04:34.491Z,13.30
2018-02-14T12:07:01.964Z,13.30
2018-02-14T12:09:29.431Z,14.10
2018-02-14T12:11:56.904Z,14.10
2018-02-14T12:14:24.367Z,14.70
2018-02-14T12:16:51.841Z,14.80
2018-02-14T12:19:19.313Z,14.80
2018-02-14T12:21:46.775Z,14.80
2018-02-14T12:24:14.231Z,15.40
2018-02-14T12:26:41.719Z,15.90
2018-02-14T12:29:09.188Z,16.50
2018-02-14T12:31:36.768Z,16.90
2018-02-14T12:34:05.768Z,16.90
2018-02-14T12:36:33.327Z,16.90
2018-02-14T12:39:00.803Z,16.80
2018-02-14T12:41:28.260Z,16.30
2018-02-14T12:43:55.849Z,16.10
2018-02-14T12:46:23.319Z,15.40
2018-02-14T12:48:50.780Z,15.60
2018-02-14T12:51:18.260Z,16.10
2018-02-14T12:53:45.747Z,16.40
2018-02-14T12:56:13.172Z,16.80
2018-02-14T12:58:40.643Z,17.10
2018-02-14T13:01:08.139Z,16.70
2018-02-14T13:03:35.596Z,16.80
2018-02-14T13:06:03.071Z,16.60
2018-02-14T13:08:30.561Z,16.10
2018-02-14T13:10:58.029Z,15.90
2018-02-14T13:13:25.500Z,15.60
2018-02-14T13:15:53.152Z,15.90
2018-02-14T13:18:20.608Z,16.10
2018-02-14T13:20:48.058Z,16.50
2018-02-14T13:23:15.540Z,16.80
2018-02-14T13:25:43.039Z,16.50
2018-02-14T13:28:10.500Z,16.30
2018-02-14T13:30:37.960Z,16.20
2018-02-14T13:33:05.440Z,16.00
2018-02-14T13:35:32.903Z,15.70
2018-02-14T13:38:00.377Z,16.10
2018-02-14T13:40:27.853Z,16.60
2018-02-14T13:42:55.307Z,16.90
2018-02-14T13:45:22.801Z,17.50
2018-02-14T13:47:50.354Z,17.60
2018-02-14T13:50:17.820Z,17.30
2018-02-14T13:52:45.294Z,17.20
2018-02-14T13:55:12.795Z,17.10
2018-02-14T13:57:40.340Z,18.00
2018-02-14T14:00:07.811Z,18.60
2018-02-14T14:02:35.480Z,18.10
2018-02-14T14:05:02.952Z,18.30
2018-02-14T14:07:30.410Z,18.50
2018-02-14T14:09:57.884Z,18.60
2018-02-14T14:12:25.375Z,19.30
2018-02-14T14:14:52.835Z,19.60
2018-02-14T14:17:20.299Z,19.60
2018-02-14T14:19:47.771Z,20.20
2018-02-14T14:22:15.224Z,20.10
2018-02-14T14:24:42.704Z,19.40
2018-02-14T14:27:10.171Z,19.40
2018-02-14T14:29:37.749Z,19.20
2018-02-14T14:32:05.215Z,19.30
2018-02-14T14:34:32.692Z,19.60
2018-02-14T14:37:00.259Z,19.20
2018-02-14T14:39:27.832Z,19.50
2018-02-14T14:41:55.288Z,19.30
2018-02-14T14:44:22.887Z,19.20
2018-02-14T14:46:50.355Z,18.90
2018-02-14T14:49:17.819Z,18.90
2018-02-14T14:51:45.386Z,19.20
2018-02-14T14:54:12.864Z,19.40
2018-02-14T14:56:40.321Z,19.40
2018-02-14T14:59:07.808Z,19.00
2018-02-14T15:01:35.271Z,18.90
2018-02-14T15:04:02.814Z,18.70
2018-02-14T15:06:30.302Z,18.80
2018-02-14T15:08:57.772Z,18.30
2018-02-14T15:11:25.247Z,17.70
2018-02-14T15:13:52.744Z,17.60
2018-02-14T15:16:21.008Z,16.80
2018-02-14T15:18:49.236Z,16.80
2018-02-14T15:21:16.706Z,16.80
2018-02-14T15:23:44.942Z,15.70
2018-02-14T15:26:12.407Z,15.60
2018-02-14T15:28:40.097Z,15.20
2018-02-14T15:31:07.560Z,15.00
2018-02-14T15:33:35.038Z,14.80
2018-02-14T15:36:02.607Z,14.20
2018-02-14T15:38:30.072Z,13.70
2018-02-14T15:40:57.752Z,13.20
2018-02-14T15:43:25.222Z,12.80
2018-02-14T15:45:52.719Z,12.60
2018-02-14T15:48:20.961Z,12.20
2018-02-14T15:50:48.491Z,12.20
2018-02-14T15:53:16.007Z,12.30
2018-02-14T15:55:43.479Z,12.40
2018-02-14T15:58:10.947Z,12.20
2018-02-14T16:00:38.416Z,11.70
2018-02-14T16:03:05.902Z,11.30
2018-02-14T16:05:33.472Z,10.90
2018-02-14T16:08:01.039Z,10.60
2018-02-14T16:10:28.523Z,10.20
2018-02-14T16:12:55.992Z,9.90
2018-02-14T16:15:23.588Z,9.40
2018-02-14T16:17:51.013Z,9.10
2018-02-14T16:20:18.487Z,8.70
2018-02-14T16:22:46.056Z,8.50
2018-02-14T16:25:13.508Z,8.20
2018-02-14T16:27:40.967Z,7.90
2018-02-14T16:30:08.423Z,7.60
2018-02-14T16:32:35.932Z,7.40
2018-02-14T16:35:03.384Z,7.20
2018-02-14T16:37:30.879Z,7.10
2018-02-14T16:39:58.327Z,6.80
2018-02-14T16:42:25.926Z,6.70
2018-02-14T16:44:53.392Z,6.60
2018-02-14T16:47:20.848Z,6.40
2018-02-14T16:49:48.307Z,6.30
2018-02-14T16:52:15.771Z,6.20
2018-02-14T16:54:43.261Z,6.10
2018-02-14T16:57:10.712Z,6.00
2018-02-14T16:59:38.199Z,6.00
2018-02-14T17:02:07.168Z,5.90
2018-02-14T17:04:34.623Z,5.80
2018-02-14T17:07:02.084Z,5.80
2018-02-14T17:09:30.432Z,5.60
2018-02-14T17:11:57.890Z,5.60
2018-02-14T17:14:25.351Z,5.50
2018-02-14T17:16:52.857Z,5.40
2018-02-14T17:19:20.315Z,5.30
2018-02-14T17:21:47.789Z,5.20
2018-02-14T17:24:15.251Z,5.10
2018-02-14T17:26:42.707Z,5.00
2018-02-14T17:29:10.287Z,5.00
2018-02-14T17:31:37.743Z,4.90
2018-02-14T17:34:05.209Z,4.90
2018-02-14T17:36:32.701Z,4.80
2018-02-14T17:39:00.163Z,4.80
2018-02-14T17:41:27.631Z,4.70
2018-02-14T17:43:55.108Z,4.60
2018-02-14T17:46:22.600Z,4.60
2018-02-14T17:48:50.048Z,4.60
2018-02-14T17:51:17.631Z,4.60
2018-02-14T17:53:45.204Z,4.50
2018-02-14T17:56:12.822Z,4.40
2018-02-14T17:58:40.394Z,4.50
2018-02-14T18:01:07.839Z,4.50
2018-02-14T18:03:36.092Z,4.40
2018-02-14T18:06:03.567Z,4.40
2018-02-14T18:08:31.025Z,4.40
2018-02-14T18:10:58.487Z,4.30
2018-02-14T18:13:25.944Z,4.20
2018-02-14T18:15:53.407Z,4.10
2018-02-14T18:18:20.867Z,4.00
2018-02-14T18:20:48.442Z,4.00
2018-02-14T18:23:15.847Z,4.00
2018-02-14T18:25:43.312Z,4.00
2018-02-14T18:28:10.767Z,4.10
2018-02-14T18:30:38.227Z,4.10
2018-02-14T18:33:05.727Z,4.00
2018-02-14T18:35:33.254Z,4.00
2018-02-14T18:38:00.772Z,3.90
2018-02-14T18:40:28.236Z,4.00
2018-02-14T18:42:55.723Z,3.90
2018-02-14T18:45:23.179Z,3.90
2018-02-14T18:47:50.644Z,3.90
2018-02-14T18:50:18.316Z,3.80
2018-02-14T18:52:45.797Z,3.80
2018-02-14T18:55:13.251Z,3.80
2018-02-14T18:57:40.733Z,3.80
2018-02-14T19:00:08.197Z,3.80
2018-02-14T19:02:35.680Z,3.70
2018-02-14T19:05:03.136Z,3.60
2018-02-14T19:07:30.601Z,3.60
2018-02-14T19:09:58.284Z,3.60
2018-02-14T19:12:25.755Z,3.60
2018-02-14T19:14:53.232Z,3.60
2018-02-14T19:17:20.792Z,3.60
2018-02-14T19:19:48.249Z,3.60
2018-02-14T19:22:15.727Z,3.60
2018-02-14T19:24:43.179Z,3.60
2018-02-14T19:27:10.628Z,3.50
2018-02-14T19:29:38.083Z,3.40
2018-02-14T19:32:06.303Z,3.40
2018-02-14T19:34:33.763Z,3.30
2018-02-14T19:37:01.219Z,3.30
2018-02-14T19:39:28.736Z,3.20
2018-02-14T19:41:56.203Z,3.20
2018-02-14T19:44:23.714Z,3.20
2018-02-14T19:46:51.140Z,3.10
2018-02-14T19:49:18.608Z,3.10
2018-02-14T19:51:46.075Z,3.00
2018-02-14T19:54:13.547Z,2.90
2018-02-14T19:56:41.007Z,2.90
2018-02-14T19:59:08.493Z,2.90
2018-02-14T20:01:35.972Z,2.80
2018-02-14T20:04:03.427Z,2.80
2018-02-14T20:06:30.890Z,2.80
2018-02-14T20:08:58.351Z,2.80
2018-02-14T20:11:25.809Z,2.80
2018-02-14T20:13:53.391Z,2.70
2018-02-14T20:16:20.840Z,2.70
2018-02-14T20:18:48.297Z,2.70
2018-02-14T20:21:15.812Z,2.70
2018-02-14T20:23:43.294Z,2.70
2018-02-14T20:26:10.764Z,2.70
2018-02-14T20:28:38.223Z,2.80
2018-02-14T20:31:05.676Z,2.70
2018-02-14T20:33:33.354Z,2.70
2018-02-14T20:36:00.848Z,2.70
2018-02-14T20:38:28.306Z,2.80
2018-02-14T20:40:55.833Z,2.80
2018-02-14T20:43:24.051Z,2.80
2018-02-14T20:45:51.535Z,2.80
2018-02-14T20:48:19.015Z,2.70
2018-02-14T20:50:46.476Z,2.60
2018-02-14T20:53:14.044Z,2.60
2018-02-14T20:55:41.501Z,2.60
2018-02-14T20:58:08.983Z,2.60
2018-02-14T21:00:36.556Z,2.60
2018-02-14T21:03:04.023Z,2.50
2018-02-14T21:05:31.509Z,2.50
2018-02-14T21:07:58.963Z,2.50
2018-02-14T21:10:26.435Z,2.40
2018-02-14T21:12:53.896Z,2.30
2018-02-14T21:15:21.480Z,2.30
2018-02-14T21:17:48.944Z,2.30
2018-02-14T21:20:16.396Z,2.40
2018-02-14T21:22:43.864Z,2.40
2018-02-14T21:25:11.315Z,2.40
2018-02-14T21:27:38.819Z,2.40
2018-02-14T21:30:06.306Z,2.40
2018-02-14T21:32:33.763Z,2.40
2018-02-14T21:35:01.220Z,2.40
2018-02-14T21:37:28.808Z,2.50
2018-02-14T21:39:56.264Z,2.50
2018-02-14T21:42:23.752Z,2.50
2018-02-14T21:44:51.208Z,2.40
2018-02-14T21:47:18.672Z,2.50
2018-02-14T21:49:46.127Z,2.40
2018-02-14T21:52:13.615Z,2.30
2018-02-14T21:54:41.071Z,2.30
2018-02-14T21:57:08.561Z,2.40
2018-02-14T21:59:36.024Z,2.40
2018-02-14T22:02:03.497Z,2.40
2018-02-14T22:04:30.978Z,2.30
2018-02-14T22:06:58.440Z,2.40
2018-02-14T22:09:25.899Z,2.30
2018-02-14T22:11:53.363Z,2.30
2018-02-14T22:14:20.843Z,2.30
2018-02-14T22:16:48.327Z,2.30
2018-02-14T22:19:15.783Z,2.30
2018-02-14T22:21:43.235Z,2.30
2018-02-14T22:24:10.716Z,2.30
2018-02-14T22:26:38.196Z,2.30
2018-02-14T22:29:05.664Z,2.30
2018-02-14T22:31:33.128Z,2.30
2018-02-14T22:34:00.608Z,2.30
2018-02-14T22:36:28.096Z,2.20
2018-02-14T22:38:55.772Z,2.20
2018-02-14T22:41:23.233Z,2.20
2018-02-14T22:43:50.782Z,2.30
2018-02-14T22:46:18.239Z,2.30
2018-02-14T22:48:45.723Z,2.30
2018-02-14T22:51:13.180Z,2.30
2018-02-14T22:53:40.631Z,2.30
2018-02-14T22:56:08.095Z,2.30
2018-02-14T22:58:35.560Z,2.30
2018-02-14T23:01:03.080Z,2.30
2018-02-14T23:03:30.532Z,2.30
2018-02-14T23:05:58.019Z,2.30
2018-02-14T23:08:25.593Z,2.40
2018-02-14T23:10:53.168Z,2.40
2018-02-14T23:13:20.650Z,2.40
2018-02-14T23:15:48.148Z,2.40
2018-02-14T23:18:16.384Z,2.50
2018-02-14T23:20:43.863Z,2.50
2018-02-14T23:23:11.427Z,2.50
2018-02-14T23:25:38.891Z,2.50
2018-02-14T23:28:06.463Z,2.50
2018-02-14T23:30:33.915Z,2.50
2018-02-14T23:33:01.380Z,2.50
2018-02-14T23:35:28.864Z,2.50
2018-02-14T23:37:56.355Z,2.50
2018-02-14T23:40:23.816Z,2.50
2018-02-14T23:42:51.388Z,2.50
2018-02-14T23:45:18.851Z,2.50
2018-02-14T23:47:46.315Z,2.60
2018-02-14T23:50:13.791Z,2.60
2018-02-14T23:52:41.264Z,2.50
2018-02-14T23:55:08.732Z,2.60
2018-02-14T23:57:36.207Z,2.60
